createdAt,value
2019-05-20T00:02:24.672Z,5.10
2019-05-20T00:04:48.012Z,4.43
2019-05-20T00:07:17.992Z,4.90
2019-05-20T00:09:48.508Z,4.63
2019-05-20T00:12:20.163Z,5.07
2019-05-20T00:14:49.630Z,4.70
2019-05-20T00:17:19.099Z,4.90
2019-05-20T00:19:51.812Z,4.73
2019-05-20T00:22:21.485Z,4.33
2019-05-20T00:24:51.420Z,4.80
2019-05-20T00:27:21.857Z,4.50
2019-05-20T00:29:51.625Z,4.23
2019-05-20T00:32:21.998Z,4.20
2019-05-20T00:34:52.352Z,4.83
2019-05-20T00:37:21.665Z,4.67
2019-05-20T00:39:51.370Z,4.53
2019-05-20T00:42:24.212Z,4.17
2019-05-20T00:44:55.804Z,4.13
2019-05-20T00:47:25.476Z,4.50
2019-05-20T00:49:55.520Z,4.43
2019-05-20T00:52:24.871Z,4.23
2019-05-20T00:54:54.830Z,3.63
2019-05-20T00:57:24.977Z,4.60
2019-05-20T00:59:54.925Z,4.27
2019-05-20T01:02:24.556Z,4.53
2019-05-20T01:04:54.497Z,4.10
2019-05-20T01:07:26.912Z,4.30
2019-05-20T01:09:56.718Z,3.97
2019-05-20T01:12:26.704Z,4.30
2019-05-20T01:14:56.517Z,4.90
2019-05-20T01:17:27.219Z,4.30
2019-05-20T01:19:58.988Z,4.80
2019-05-20T01:22:31.131Z,4.87
2019-05-20T01:25:00.903Z,4.47
2019-05-20T01:27:30.976Z,4.43
2019-05-20T01:30:01.302Z,4.10
2019-05-20T01:32:31.011Z,5.20
2019-05-20T01:35:00.639Z,5.00
2019-05-20T01:37:32.825Z,5.00
2019-05-20T01:40:02.119Z,4.87
2019-05-20T01:42:31.395Z,5.23
2019-05-20T01:45:01.170Z,5.62
2019-05-20T01:47:31.194Z,5.17
2019-05-20T01:50:00.411Z,5.35
2019-05-20T02:27:16.612Z,5.07
2019-05-20T02:29:46.265Z,5.53
2019-05-20T02:32:15.928Z,6.57
2019-05-20T02:34:45.302Z,5.80
2019-05-20T02:37:14.753Z,7.00
2019-05-20T02:39:44.434Z,8.00
2019-05-20T02:42:13.430Z,8.28
2019-05-20T02:44:42.778Z,9.35
2019-05-20T02:47:11.883Z,7.23
2019-05-20T02:49:41.247Z,8.03
2019-05-20T02:52:10.349Z,8.13
2019-05-20T02:54:39.704Z,7.40
2019-05-20T02:57:09.043Z,8.17
2019-05-20T02:59:39.392Z,8.20
2019-05-20T03:02:08.821Z,7.83
2019-05-20T03:04:38.108Z,7.70
2019-05-20T03:21:57.170Z,9.07
2019-05-20T03:24:26.534Z,9.77
2019-05-20T03:26:55.690Z,10.93
2019-05-20T03:29:25.376Z,10.17
2019-05-20T03:31:54.530Z,10.60
2019-05-20T03:34:45.140Z,10.53
2019-05-20T03:36:55.627Z,11.00
2019-05-20T03:39:24.999Z,11.43
2019-05-20T03:41:57.652Z,12.30
2019-05-20T03:44:27.468Z,12.97
2019-05-20T03:46:58.509Z,12.13
2019-05-20T03:49:32.493Z,12.43
2019-05-20T03:52:01.942Z,11.57
2019-05-20T03:54:31.003Z,12.40
2019-05-20T03:57:00.627Z,13.13
2019-05-20T03:59:30.725Z,13.43
2019-05-20T04:02:00.281Z,12.40
2019-05-20T04:04:29.687Z,12.17
2019-05-20T04:06:59.268Z,12.27
2019-05-20T04:09:28.667Z,12.50
2019-05-20T04:11:57.877Z,12.00
2019-05-20T04:14:27.728Z,12.67
2019-05-20T04:16:56.818Z,12.30
2019-05-20T04:19:26.706Z,12.93
2019-05-20T04:21:56.264Z,12.20
2019-05-20T04:24:25.684Z,12.10
2019-05-20T04:31:57.226Z,13.33
2019-05-20T04:34:26.972Z,13.97
2019-05-20T04:36:56.023Z,14.53
2019-05-20T04:39:25.329Z,14.50
2019-05-20T04:41:55.202Z,14.93
2019-05-20T04:44:24.878Z,14.77
2019-05-20T04:46:57.733Z,15.27
2019-05-20T04:49:25.520Z,15.40
2019-05-20T04:51:55.760Z,14.97
2019-05-20T04:54:30.840Z,19.32
2019-05-20T04:57:00.296Z,16.70
2019-05-20T04:59:29.838Z,16.00
2019-05-20T05:01:59.819Z,18.00
2019-05-20T05:04:30.137Z,15.65
2019-05-20T05:07:00.007Z,14.40
2019-05-20T05:09:29.736Z,14.33
2019-05-20T05:11:59.310Z,10.83
2019-05-20T05:14:29.076Z,10.10
2019-05-20T05:16:59.170Z,9.60
2019-05-20T05:19:28.726Z,10.13
2019-05-20T05:21:58.401Z,11.43
2019-05-20T05:24:27.968Z,11.80
2019-05-20T05:26:57.199Z,12.77
2019-05-20T05:29:26.334Z,11.90
2019-05-20T05:31:55.745Z,12.30
2019-05-20T05:34:24.893Z,11.80
2019-05-20T05:36:54.249Z,11.80
2019-05-20T05:39:23.475Z,13.37
2019-05-20T05:41:53.329Z,13.20
2019-05-20T05:44:23.460Z,13.47
2019-05-20T05:46:53.490Z,12.93
2019-05-20T05:49:24.090Z,14.80
2019-05-20T05:51:56.311Z,18.90
2019-05-20T05:54:26.681Z,19.30
2019-05-20T05:56:56.390Z,18.62
2019-05-20T05:59:26.728Z,18.80
2019-05-20T06:01:58.800Z,19.67
2019-05-20T06:04:29.417Z,19.48
2019-05-20T06:07:04.743Z,20.97
2019-05-20T06:09:36.306Z,19.82
2019-05-20T06:12:08.643Z,18.67
2019-05-20T06:14:44.471Z,18.52
2019-05-20T06:17:20.052Z,18.20
2019-05-20T06:19:51.846Z,18.27
2019-05-20T06:22:28.305Z,18.37
2019-05-20T06:24:59.831Z,17.62
2019-05-20T06:27:31.488Z,19.00
2019-05-20T06:30:10.291Z,19.80
2019-05-20T06:32:42.539Z,20.37
2019-05-20T06:35:15.507Z,19.80
2019-05-20T06:37:49.006Z,20.87
2019-05-20T06:40:18.470Z,21.17
2019-05-20T06:42:48.442Z,20.00
2019-05-20T06:45:18.757Z,21.67
2019-05-20T06:47:48.565Z,21.42
2019-05-20T06:50:19.151Z,23.05
2019-05-20T06:52:48.867Z,22.82
2019-05-20T06:55:20.016Z,22.93
2019-05-20T06:57:51.654Z,24.12
2019-05-20T07:00:32.894Z,23.27
2019-05-20T07:03:06.788Z,22.90
2019-05-20T07:05:40.186Z,23.10
2019-05-20T07:08:10.687Z,23.15
2019-05-20T07:10:40.695Z,21.93
2019-05-20T07:13:10.261Z,23.60
2019-05-20T07:15:44.052Z,21.52
2019-05-20T07:18:16.638Z,21.97
2019-05-20T07:20:46.755Z,21.80
2019-05-20T07:23:19.114Z,23.45
2019-05-20T07:25:49.857Z,23.18
2019-05-20T07:28:19.796Z,21.55
2019-05-20T07:30:49.191Z,20.55
2019-05-20T07:33:18.883Z,21.73
2019-05-20T07:35:48.359Z,21.97
2019-05-20T07:38:17.872Z,24.55
2019-05-20T07:40:51.343Z,22.62
2019-05-20T07:43:20.816Z,22.55
2019-05-20T07:45:50.871Z,21.33
2019-05-20T07:48:20.182Z,20.95
2019-05-20T07:50:50.370Z,21.40
2019-05-20T07:53:20.051Z,21.23
2019-05-20T07:56:07.274Z,20.55
2019-05-20T07:58:39.344Z,17.40
2019-05-20T08:01:09.062Z,16.57
2019-05-20T08:03:38.806Z,16.67
2019-05-20T08:06:19.029Z,21.37
2019-05-20T08:08:48.097Z,21.57
2019-05-20T08:11:17.572Z,20.35
2019-05-20T08:13:47.215Z,19.10
2019-05-20T08:16:17.499Z,21.15
2019-05-20T08:18:47.095Z,20.23
2019-05-20T08:21:19.511Z,20.23
2019-05-20T08:23:50.284Z,19.48
2019-05-20T08:26:20.517Z,19.27
2019-05-20T08:28:50.270Z,15.57
2019-05-20T08:31:19.969Z,14.97
2019-05-20T08:33:49.395Z,15.00
2019-05-20T08:36:18.888Z,14.93
2019-05-20T08:38:48.310Z,19.55
2019-05-20T08:41:19.066Z,19.60
2019-05-20T08:43:48.181Z,18.73
2019-05-20T08:46:17.705Z,19.52
2019-05-20T08:48:46.969Z,17.92
2019-05-20T08:51:17.542Z,18.60
2019-05-20T08:53:47.077Z,18.90
2019-05-20T08:56:16.537Z,18.55
2019-05-20T08:58:46.218Z,17.90
2019-05-20T09:01:16.383Z,17.77
2019-05-20T09:03:45.717Z,18.02
2019-05-20T09:06:20.437Z,17.95
2019-05-20T09:08:46.985Z,19.55
2019-05-20T09:11:16.563Z,16.90
2019-05-20T09:13:45.806Z,16.17
2019-05-20T09:16:14.991Z,16.57
2019-05-20T09:18:44.322Z,16.42
2019-05-20T09:21:13.782Z,17.45
2019-05-20T09:23:45.071Z,16.37
2019-05-20T09:26:14.286Z,16.55
2019-05-20T09:28:43.396Z,18.40
2019-05-20T09:31:13.365Z,17.45
2019-05-20T09:33:43.672Z,16.80
2019-05-20T09:36:13.589Z,16.43
2019-05-20T09:38:43.601Z,16.43
2019-05-20T09:41:13.490Z,15.53
2019-05-20T09:43:42.965Z,17.73
2019-05-20T09:46:12.703Z,14.67
2019-05-20T09:48:42.593Z,14.57
2019-05-20T09:51:14.430Z,16.55
2019-05-20T09:53:44.467Z,14.13
2019-05-20T09:56:14.477Z,13.50
2019-05-20T09:58:44.625Z,13.80
2019-05-20T10:01:13.852Z,13.97
2019-05-20T10:03:53.861Z,13.87
2019-05-20T10:06:23.654Z,13.27
2019-05-20T10:08:53.537Z,15.30
2019-05-20T10:11:22.984Z,13.90
2019-05-20T10:13:52.090Z,13.60
2019-05-20T10:16:21.737Z,13.90
2019-05-20T10:18:50.832Z,12.77
2019-05-20T10:21:20.373Z,13.50
2019-05-20T10:23:50.883Z,16.30
2019-05-20T10:26:20.089Z,14.30
2019-05-20T10:28:49.829Z,14.53
2019-05-20T10:31:19.031Z,17.73
2019-05-20T10:33:49.091Z,18.10
2019-05-20T10:36:20.772Z,16.90
2019-05-20T10:38:58.403Z,15.83
2019-05-20T10:41:23.776Z,16.90
2019-05-20T10:43:54.064Z,17.32
2019-05-20T10:46:23.409Z,16.30
2019-05-20T10:48:52.619Z,16.42
2019-05-20T10:51:22.607Z,17.20
2019-05-20T10:53:51.926Z,17.00
2019-05-20T10:56:20.994Z,16.73
2019-05-20T10:58:50.311Z,17.67
2019-05-20T11:01:20.050Z,16.67
2019-05-20T11:03:50.310Z,17.15
2019-05-20T11:06:20.527Z,17.50
2019-05-20T11:08:50.234Z,19.40
2019-05-20T11:11:19.739Z,16.48
2019-05-20T11:13:49.823Z,15.08
2019-05-20T11:16:19.869Z,16.70
2019-05-20T11:18:50.116Z,14.47
2019-05-20T11:21:19.661Z,12.93
2019-05-20T11:23:50.278Z,13.13
2019-05-20T11:26:20.227Z,13.40
2019-05-20T11:28:49.813Z,13.67
2019-05-20T11:31:19.471Z,14.77
2019-05-20T11:33:48.745Z,15.07
2019-05-20T11:36:18.858Z,15.37
2019-05-20T11:38:48.106Z,15.40
2019-05-20T11:41:18.740Z,17.50
2019-05-20T11:43:48.134Z,16.77
2019-05-20T11:46:18.083Z,15.80
2019-05-20T11:48:47.997Z,17.00
2019-05-20T11:51:17.919Z,17.23
2019-05-20T11:53:47.379Z,19.60
2019-05-20T11:56:18.270Z,19.13
2019-05-20T11:58:48.426Z,21.00
2019-05-20T12:01:17.990Z,20.67
2019-05-20T12:03:50.523Z,21.03
2019-05-20T12:06:20.370Z,21.80
2019-05-20T12:08:49.991Z,19.80
2019-05-20T12:11:19.509Z,20.30
2019-05-20T12:13:49.139Z,21.90
2019-05-20T12:16:20.456Z,19.73
2019-05-20T12:18:49.790Z,20.03
2019-05-20T12:21:19.956Z,18.80
2019-05-20T12:31:14.990Z,18.30
2019-05-20T12:33:44.328Z,19.23
2019-05-20T12:36:13.958Z,18.80
2019-05-20T12:38:43.876Z,18.73
2019-05-20T12:41:13.209Z,19.60
2019-05-20T12:43:45.035Z,20.97
2019-05-20T12:46:14.505Z,19.50
2019-05-20T12:48:43.836Z,17.33
2019-05-20T13:06:07.487Z,16.53
2019-05-20T13:08:36.592Z,16.23
2019-05-20T13:11:06.226Z,16.20
2019-05-20T13:13:35.798Z,17.20
2019-05-20T13:16:04.958Z,14.05
2019-05-20T13:18:34.603Z,12.80
2019-05-20T13:21:05.977Z,11.80
2019-05-20T13:23:35.705Z,11.48
2019-05-20T13:26:06.575Z,11.25
2019-05-20T13:28:36.048Z,10.32
2019-05-20T13:31:05.224Z,11.20
2019-05-20T13:33:34.711Z,11.43
2019-05-20T13:36:04.547Z,12.45
2019-05-20T13:38:33.717Z,12.50
2019-05-20T13:41:03.039Z,12.00
2019-05-20T13:43:32.647Z,10.53
2019-05-20T13:46:04.014Z,10.30
2019-05-20T13:48:34.417Z,11.28
2019-05-20T13:51:03.542Z,10.88
2019-05-20T13:53:33.762Z,10.58
2019-05-20T13:56:03.181Z,8.83
2019-05-20T13:58:33.051Z,9.35
2019-05-20T14:01:02.668Z,10.50
2019-05-20T14:03:34.147Z,9.07
2019-05-20T14:06:03.528Z,9.08
2019-05-20T14:08:33.178Z,8.40
2019-05-20T14:11:04.684Z,9.00
2019-05-20T14:13:33.343Z,8.48
2019-05-20T14:16:02.985Z,8.80
2019-05-20T14:18:32.769Z,8.70
2019-05-20T14:21:02.839Z,7.80
2019-05-20T14:23:32.661Z,9.28
2019-05-20T14:26:03.032Z,7.57
2019-05-20T14:28:34.083Z,8.50
2019-05-20T14:31:06.060Z,9.40
2019-05-20T14:33:34.435Z,10.00
2019-05-20T14:36:03.573Z,16.85
2019-05-20T14:38:32.793Z,8.80
2019-05-20T14:41:20.086Z,8.48
2019-05-20T14:43:34.510Z,8.68
2019-05-20T14:46:04.578Z,9.13
2019-05-20T14:48:34.571Z,8.78
2019-05-20T14:51:03.879Z,9.60
2019-05-20T14:53:33.283Z,9.45
2019-05-20T14:56:02.638Z,9.60
2019-05-20T14:58:32.448Z,9.40
2019-05-20T15:01:02.145Z,7.47
2019-05-20T15:03:31.617Z,7.40
2019-05-20T15:06:00.972Z,6.42
2019-05-20T15:08:33.814Z,7.17
2019-05-20T15:11:01.575Z,7.65
2019-05-20T15:13:30.697Z,7.30
2019-05-20T15:16:00.255Z,7.62
2019-05-20T15:18:29.768Z,7.67
2019-05-20T15:20:59.268Z,7.28
2019-05-20T15:23:29.034Z,7.33
2019-05-20T15:25:58.869Z,6.95
2019-05-20T15:28:28.435Z,8.38
2019-05-20T15:30:58.134Z,9.30
2019-05-20T15:33:28.294Z,10.33
2019-05-20T15:35:57.362Z,8.90
2019-05-20T15:38:26.725Z,8.95
2019-05-20T15:40:56.557Z,8.58
2019-05-20T15:43:26.884Z,8.90
2019-05-20T15:45:55.987Z,8.58
2019-05-20T15:48:25.046Z,8.30
2019-05-20T15:50:54.124Z,8.97
2019-05-20T15:53:23.791Z,9.30
2019-05-20T15:55:55.475Z,9.00
2019-05-20T15:58:24.618Z,9.75
2019-05-20T16:00:53.999Z,10.05
2019-05-20T16:03:25.577Z,7.97
2019-05-20T16:05:59.606Z,8.58
2019-05-20T16:08:26.499Z,8.43
2019-05-20T16:10:57.020Z,9.20
2019-05-20T16:13:26.119Z,8.60
2019-05-20T16:15:55.839Z,8.13
2019-05-20T16:18:25.734Z,9.20
2019-05-20T16:20:55.076Z,9.20
2019-05-20T16:23:24.248Z,8.83
2019-05-20T16:25:55.332Z,8.88
2019-05-20T16:28:24.777Z,8.83
2019-05-20T16:30:54.387Z,7.73
2019-05-20T16:33:23.797Z,8.05
2019-05-20T16:35:52.977Z,8.50
2019-05-20T16:38:22.517Z,9.00
2019-05-20T16:40:52.383Z,8.10
2019-05-20T16:43:22.184Z,8.13
2019-05-20T16:45:51.850Z,9.65
2019-05-20T16:48:21.283Z,9.88
2019-05-20T16:50:51.997Z,9.40
2019-05-20T16:53:21.368Z,10.08
2019-05-20T16:55:50.807Z,7.90
2019-05-20T16:58:19.898Z,8.10
2019-05-20T17:00:49.736Z,8.20
2019-05-20T17:03:19.443Z,9.00
2019-05-20T17:05:48.838Z,8.63
2019-05-20T17:08:18.241Z,9.47
2019-05-20T17:10:47.863Z,8.87
2019-05-20T17:13:17.234Z,8.97
2019-05-20T17:15:46.668Z,8.27
2019-05-20T17:18:15.979Z,11.12
2019-05-20T17:20:46.504Z,11.53
2019-05-20T17:23:16.279Z,12.35
2019-05-20T17:25:45.829Z,13.30
2019-05-20T17:28:15.230Z,13.37
2019-05-20T17:30:45.993Z,13.28
2019-05-20T17:33:16.317Z,12.75
2019-05-20T17:35:45.436Z,14.28
2019-05-20T17:38:14.575Z,14.73
2019-05-20T17:40:44.015Z,14.93
2019-05-20T17:43:13.807Z,14.83
2019-05-20T17:45:43.513Z,15.25
2019-05-20T17:48:13.198Z,16.67
2019-05-20T17:50:42.674Z,17.27
2019-05-20T17:53:12.782Z,17.80
2019-05-20T17:55:41.938Z,17.12
2019-05-20T17:58:11.390Z,17.65
2019-05-20T18:00:40.545Z,14.30
2019-05-20T18:03:10.197Z,15.20
2019-05-20T18:05:39.786Z,18.57
2019-05-20T18:08:09.478Z,17.80
2019-05-20T18:10:39.129Z,18.80
2019-05-20T18:13:08.898Z,18.70
2019-05-20T18:15:38.297Z,18.07
2019-05-20T18:18:07.688Z,18.73
2019-05-20T18:20:37.238Z,18.57
2019-05-20T18:23:06.900Z,18.35
2019-05-20T18:25:36.244Z,18.65
2019-05-20T18:28:05.706Z,17.17
2019-05-20T18:30:35.099Z,17.35
2019-05-20T18:33:04.818Z,17.65
2019-05-20T18:35:34.265Z,19.92
2019-05-20T18:38:05.046Z,20.20
2019-05-20T18:40:34.763Z,21.00
2019-05-20T18:43:04.463Z,21.57
2019-05-20T18:45:34.800Z,21.07
2019-05-20T18:48:04.275Z,20.97
2019-05-20T18:50:33.600Z,21.80
2019-05-20T18:53:03.409Z,20.50
2019-05-20T18:55:34.980Z,20.90
2019-05-20T18:58:05.344Z,20.43
2019-05-20T19:00:34.682Z,18.52
2019-05-20T19:03:04.542Z,17.50
2019-05-20T19:05:33.971Z,17.17
2019-05-20T19:08:03.331Z,18.00
2019-05-20T19:10:33.154Z,17.52
2019-05-20T19:13:02.228Z,16.87
2019-05-20T19:15:31.610Z,16.17
2019-05-20T19:18:01.213Z,17.00
2019-05-20T19:20:30.635Z,17.25
2019-05-20T19:22:59.808Z,16.43
2019-05-20T19:25:37.384Z,18.32
2019-05-20T19:28:01.000Z,17.57
2019-05-20T19:30:31.143Z,17.62
2019-05-20T19:33:00.676Z,17.30
2019-05-20T19:35:31.352Z,16.90
2019-05-20T19:38:00.549Z,17.40
2019-05-20T19:40:30.523Z,17.25
2019-05-20T19:42:59.859Z,16.77
2019-05-20T19:45:29.223Z,16.70
2019-05-20T19:47:58.292Z,16.42
2019-05-20T19:50:28.108Z,15.53
2019-05-20T19:52:57.710Z,15.47
2019-05-20T19:55:27.230Z,13.85
2019-05-20T19:57:56.829Z,13.70
2019-05-20T20:00:26.330Z,14.25
2019-05-20T20:02:55.391Z,12.78
2019-05-20T20:05:25.174Z,12.03
2019-05-20T20:07:54.780Z,11.60
2019-05-20T20:10:23.923Z,12.45
2019-05-20T20:12:53.003Z,11.75
2019-05-20T20:15:22.659Z,11.03
2019-05-20T20:17:53.026Z,11.57
2019-05-20T20:20:22.956Z,11.75
2019-05-20T20:22:52.005Z,11.05
2019-05-20T20:25:21.957Z,11.03
2019-05-20T20:27:52.064Z,11.15
2019-05-20T20:30:21.314Z,11.50
2019-05-20T20:32:51.987Z,11.37
2019-05-20T20:35:21.158Z,7.37
2019-05-20T20:37:51.156Z,5.10
2019-05-20T20:55:14.841Z,7.20
2019-05-20T20:57:44.476Z,8.60
2019-05-20T21:00:14.270Z,7.67
2019-05-20T21:02:52.747Z,7.93
2019-05-20T21:05:15.604Z,5.63
2019-05-20T21:07:45.735Z,5.03
2019-05-20T21:10:14.939Z,4.50
2019-05-20T21:12:44.071Z,6.22
2019-05-20T21:15:13.570Z,5.72
2019-05-20T21:17:43.179Z,5.80
2019-05-20T21:20:12.512Z,4.47
2019-05-20T21:22:43.124Z,4.63
2019-05-20T21:25:12.785Z,5.00
2019-05-20T21:27:41.984Z,6.47
2019-05-20T21:30:11.371Z,6.57
2019-05-20T21:32:41.034Z,7.13
2019-05-20T21:35:10.352Z,8.20
2019-05-20T21:37:39.510Z,8.77
2019-05-20T21:40:08.980Z,9.97
2019-05-20T21:42:38.439Z,10.40
2019-05-20T21:45:08.667Z,11.13
2019-05-20T21:47:40.871Z,13.38
2019-05-20T21:50:10.366Z,13.25
2019-05-20T21:52:39.540Z,12.43
2019-05-20T21:55:09.338Z,11.18
2019-05-20T21:57:39.025Z,10.95
2019-05-20T22:00:11.427Z,10.67
2019-05-20T22:02:56.430Z,10.70
2019-05-20T22:05:27.099Z,9.93
2019-05-20T22:07:56.946Z,9.88
2019-05-20T22:10:26.939Z,9.25
2019-05-20T22:12:56.575Z,7.07
2019-05-20T22:15:26.402Z,7.00
2019-05-20T22:17:55.818Z,9.50
2019-05-20T22:20:26.140Z,9.28
2019-05-20T22:23:13.919Z,9.15
2019-05-20T22:25:43.554Z,8.68
2019-05-20T22:28:13.708Z,7.70
2019-05-20T22:30:43.536Z,7.47
2019-05-20T22:33:12.740Z,7.83
2019-05-20T22:35:45.033Z,7.37
2019-05-20T22:38:14.357Z,7.62
2019-05-20T22:40:44.135Z,7.37
2019-05-20T22:43:13.742Z,6.67
2019-05-20T22:45:44.086Z,7.23
2019-05-20T22:53:10.281Z,8.60
2019-05-20T22:55:39.632Z,8.07
2019-05-20T22:58:08.634Z,9.67
2019-05-20T23:00:37.646Z,9.97
2019-05-20T23:03:07.014Z,10.53
2019-05-20T23:05:36.099Z,10.60
2019-05-20T23:08:05.188Z,11.80
2019-05-20T23:10:34.578Z,11.90
2019-05-20T23:13:03.673Z,12.17
2019-05-20T23:15:32.976Z,12.43
2019-05-20T23:18:03.044Z,12.07
2019-05-20T23:20:33.110Z,11.37
2019-05-20T23:23:02.307Z,12.33
2019-05-20T23:25:31.979Z,11.80
2019-05-20T23:28:01.337Z,10.70
2019-05-20T23:30:30.860Z,11.00
2019-05-20T23:33:00.381Z,12.07
2019-05-20T23:35:29.893Z,10.73
2019-05-20T23:38:00.080Z,10.37
2019-05-20T23:40:29.899Z,9.10
2019-05-20T23:42:59.560Z,9.23
2019-05-20T23:45:29.149Z,8.97
2019-05-20T23:47:58.799Z,9.80
2019-05-20T23:50:28.329Z,8.13
2019-05-20T23:52:58.671Z,7.30
2019-05-20T23:55:28.206Z,7.20
2019-05-20T23:57:58.381Z,6.50
